Terminal Aerodrome Forecast
Issued by NWS Tuscon, AZ

Home | Current Version | Previous Version | Text Only | Print | Product List | Glossary On
Versions: 1 2 3 4 5 6 7 8 9 10 11 12
834
FTUS45 KTWC 030524
TAFTUS
TAF
KTUS 030524Z 0306/0406 VRB06KT P6SM VCSH SCT080 BKN100
      TEMPO 0307/0311 -SHRA BKN050 OVC080
     FM031600 VRB05KT P6SM SCT080 BKN100
     FM032200 34010KT P6SM SCT090 BKN180
     FM040200 VRB05KT P6SM SCT120 SCT200=

USA.gov is the U.S. government's official web portal to all federal, state and local government web resources and services.